Time;durP1;ratioP1;P1;durP2;ratioP2;P2;SDS_P1;SDS_P2;PMS_P1;PMS_P2;Temp;Humidity;BMP_temperature;BMP_pressure;BME280_temperature;BME280_humidity;BME280_pressure;Samples;Min_cycle;Max_cycle;Signal;HPM_P1;HPM_P2
2021/05/22 00:02:01;;;;;;;1.48;1.38;;;25.60;56.50;;;;;;5105056;28;20043;-40
2021/05/22 00:04:27;;;;;;;1.50;1.40;;;25.60;56.50;;;;;;5105031;28;20034;-40
2021/05/22 00:06:54;;;;;;;1.40;1.30;;;25.60;56.60;;;;;;5105115;28;20028;-40
2021/05/22 00:09:20;;;;;;;1.30;1.20;;;25.60;56.50;;;;;;5104998;28;20031;-41
2021/05/22 00:11:46;;;;;;;1.10;1.00;;;25.60;56.50;;;;;;5105109;28;20027;-40
2021/05/22 00:14:12;;;;;;;1.20;1.10;;;25.60;56.30;;;;;;5104372;28;20044;-40
2021/05/22 00:16:38;;;;;;;1.33;1.15;;;25.60;56.50;;;;;;5102505;28;20032;-40
2021/05/22 00:19:05;;;;;;;1.27;1.17;;;25.60;56.50;;;;;;5104569;28;20048;-41
2021/05/22 00:21:31;;;;;;;1.30;1.20;;;25.60;56.30;;;;;;5104598;28;20121;-40
2021/05/22 00:23:57;;;;;;;1.30;1.20;;;25.50;56.40;;;;;;5104647;28;20024;-40
2021/05/22 00:26:23;;;;;;;1.03;1.03;;;25.50;56.30;;;;;;5103027;28;20040;-40
2021/05/22 00:28:49;;;;;;;1.10;1.00;;;25.50;56.40;;;;;;5104570;28;20325;-41
2021/05/22 00:31:16;;;;;;;1.00;1.00;;;25.50;56.30;;;;;;5104569;28;20032;-40
2021/05/22 00:33:44;;;;;;;1.20;1.10;;;25.50;56.40;;;;;;5104228;28;20024;-40
2021/05/22 00:36:10;;;;;;;1.30;1.20;;;25.50;56.40;;;;;;5104307;28;20028;-40
2021/05/22 00:38:36;;;;;;;1.20;1.10;;;25.50;56.40;;;;;;5104498;28;20044;-41
2021/05/22 00:41:02;;;;;;;1.30;1.20;;;25.50;56.40;;;;;;5104021;28;20028;-40
2021/05/22 00:43:29;;;;;;;1.38;1.27;;;25.50;56.30;;;;;;5104053;28;20058;-40
2021/05/22 00:45:55;;;;;;;1.30;1.20;;;25.50;56.40;;;;;;5104094;28;20072;-41
2021/05/22 00:48:22;;;;;;;1.50;1.40;;;25.50;56.30;;;;;;5104143;28;20035;-40
2021/05/22 00:50:50;;;;;;;1.30;1.20;;;25.40;56.20;;;;;;5104044;28;20052;-42
2021/05/22 00:53:17;;;;;;;1.35;1.25;;;25.40;56.30;;;;;;5102323;28;20058;-40
2021/05/22 00:55:43;;;;;;;1.48;1.38;;;25.40;56.30;;;;;;5104029;28;20027;-43
2021/05/22 00:58:09;;;;;;;1.20;1.10;;;25.40;56.40;;;;;;5104015;28;20020;-43
2021/05/22 01:00:49;;;;;;;1.27;1.17;;;25.40;56.50;;;;;;5103721;28;20039;-40
2021/05/22 01:03:20;;;;;;;1.23;1.13;;;25.40;56.40;;;;;;5103618;28;20020;-39
2021/05/22 01:05:46;;;;;;;1.33;1.23;;;25.40;56.60;;;;;;5100716;28;20027;-40
2021/05/22 01:08:21;;;;;;;1.20;1.10;;;25.40;56.50;;;;;;5103763;28;20028;-41
2021/05/22 01:11:12;;;;;;;1.10;1.00;;;25.30;56.50;;;;;;5101364;28;20264;-41
2021/05/22 01:13:39;;;;;;;1.15;1.05;;;25.30;56.40;;;;;;5100531;28;20435;-40
2021/05/22 01:16:05;;;;;;;0.98;0.88;;;25.30;56.40;;;;;;5102139;28;20054;-42
2021/05/22 01:18:31;;;;;;;1.17;1.08;;;25.30;56.50;;;;;;5102240;28;20087;-39
2021/05/22 01:20:59;;;;;;;1.30;1.20;;;25.30;56.50;;;;;;5103302;28;20078;-40
2021/05/22 01:23:40;;;;;;;2.10;1.30;;;25.30;56.40;;;;;;5103272;28;20035;-40
2021/05/22 01:26:07;;;;;;;1.10;1.00;;;25.20;56.40;;;;;;5085373;28;20124;-40
2021/05/22 01:28:36;;;;;;;1.10;1.00;;;25.20;56.40;;;;;;5103630;28;20117;-41
2021/05/22 01:31:03;;;;;;;1.13;1.02;;;25.20;56.40;;;;;;5103104;28;20264;-39
2021/05/22 01:33:30;;;;;;;1.40;1.30;;;25.20;56.80;;;;;;5102977;28;20020;-41
2021/05/22 01:35:56;;;;;;;1.42;1.33;;;25.20;56.40;;;;;;5103366;28;20067;-40
2021/05/22 01:38:22;;;;;;;1.48;1.38;;;25.20;56.50;;;;;;5096389;28;20032;-40
2021/05/22 01:40:50;;;;;;;1.83;1.30;;;25.20;56.40;;;;;;5096768;28;20051;-40
2021/05/22 01:43:16;;;;;;;1.40;1.30;;;25.20;56.30;;;;;;5103353;28;20370;-40
2021/05/22 01:45:44;;;;;;;1.30;1.20;;;25.20;56.60;;;;;;5102799;28;20036;-42
2021/05/22 01:48:12;;;;;;;1.30;1.20;;;25.20;56.60;;;;;;5101672;28;20046;-42
2021/05/22 01:50:43;;;;;;;1.40;1.30;;;25.10;56.50;;;;;;5101503;28;20083;-41
2021/05/22 01:53:09;;;;;;;1.25;1.15;;;25.10;56.60;;;;;;5103065;28;20058;-42
2021/05/22 01:55:37;;;;;;;1.15;1.08;;;25.10;56.70;;;;;;5101438;28;20084;-40
2021/05/22 01:58:04;;;;;;;1.30;1.20;;;25.10;56.70;;;;;;5101766;28;20028;-40
2021/05/22 02:00:30;;;;;;;1.30;1.20;;;25.00;56.50;;;;;;5088550;28;20025;-40
2021/05/22 02:03:01;;;;;;;2.10;1.20;;;25.00;56.70;;;;;;5095813;28;20036;-42
2021/05/22 02:05:27;;;;;;;1.23;1.13;;;25.00;56.70;;;;;;5101305;28;20024;-42
2021/05/22 02:07:54;;;;;;;1.17;1.02;;;25.00;56.70;;;;;;5102910;28;20111;-42
2021/05/22 02:10:20;;;;;;;1.20;1.15;;;25.00;56.60;;;;;;5081241;28;20029;-43
2021/05/22 02:12:47;;;;;;;1.40;1.30;;;25.00;56.70;;;;;;5082757;28;20094;-40
2021/05/22 02:15:14;;;;;;;1.15;1.05;;;25.00;56.70;;;;;;5080570;28;20049;-40
2021/05/22 02:17:40;;;;;;;1.15;1.05;;;25.00;56.80;;;;;;5064853;28;20037;-41
2021/05/22 02:20:08;;;;;;;1.27;1.17;;;24.90;56.70;;;;;;5081334;28;20072;-40
2021/05/22 02:22:34;;;;;;;1.50;1.40;;;24.90;56.70;;;;;;5083691;28;20032;-40
2021/05/22 02:25:00;;;;;;;1.33;1.23;;;24.90;56.80;;;;;;5102471;28;20028;-41
2021/05/22 02:27:26;;;;;;;1.50;1.40;;;24.90;56.80;;;;;;5084534;28;20024;-40
2021/05/22 02:29:52;;;;;;;1.52;1.15;;;24.90;56.80;;;;;;5093537;28;20352;-40
2021/05/22 02:32:19;;;;;;;1.20;1.15;;;24.90;56.80;;;;;;5072384;28;20054;-41
2021/05/22 02:34:53;;;;;;;1.23;1.13;;;24.90;56.90;;;;;;5102379;28;20032;-42
2021/05/22 02:37:20;;;;;;;1.30;1.20;;;24.80;56.80;;;;;;5101164;28;20035;-39
2021/05/22 02:39:50;;;;;;;1.60;1.48;;;24.80;56.80;;;;;;5097680;28;20524;-40
2021/05/22 02:42:16;;;;;;;2.47;1.25;;;24.80;56.90;;;;;;5064215;28;20055;-40
2021/05/22 02:44:44;;;;;;;1.53;1.43;;;24.80;57.10;;;;;;5063788;28;20025;-45
2021/05/22 02:47:10;;;;;;;1.70;1.60;;;24.80;57.20;;;;;;5064614;28;20036;-41
2021/05/22 02:49:41;;;;;;;1.45;1.35;;;24.70;57.00;;;;;;5081956;28;20044;-43
2021/05/22 02:52:07;;;;;;;1.80;1.70;;;24.70;57.00;;;;;;5084570;28;20032;-40
2021/05/22 02:54:38;;;;;;;1.58;1.48;;;24.70;57.10;;;;;;5086011;28;20126;-40
2021/05/22 02:57:05;;;;;;;1.75;1.65;;;24.70;57.10;;;;;;5068842;28;20039;-43
2021/05/22 02:59:31;;;;;;;1.48;1.38;;;24.70;57.10;;;;;;5089039;28;20035;-41
2021/05/22 03:01:58;;;;;;;1.80;1.70;;;24.60;57.10;;;;;;5104679;28;20062;-42
2021/05/22 03:04:24;;;;;;;1.48;1.38;;;24.60;57.10;;;;;;5104847;28;20026;-42
2021/05/22 03:06:50;;;;;;;1.60;1.50;;;24.60;57.10;;;;;;5104441;28;20106;-40
2021/05/22 03:09:16;;;;;;;1.50;1.40;;;24.60;57.00;;;;;;5104754;28;20396;-41
2021/05/22 03:11:42;;;;;;;1.30;1.20;;;24.60;57.00;;;;;;5103985;28;20036;-41
2021/05/22 03:14:09;;;;;;;1.85;1.50;;;24.60;57.20;;;;;;5104393;28;20039;-40
2021/05/22 03:16:35;;;;;;;1.87;1.50;;;24.60;57.10;;;;;;5086090;28;20078;-39
2021/05/22 03:19:01;;;;;;;1.48;1.38;;;24.50;57.40;;;;;;5085539;28;20253;-39
2021/05/22 03:21:27;;;;;;;1.75;1.65;;;24.50;57.40;;;;;;5083936;28;20044;-40
2021/05/22 03:23:54;;;;;;;2.10;1.65;;;24.50;57.50;;;;;;5085483;28;20028;-40
2021/05/22 03:26:20;;;;;;;2.78;1.73;;;24.50;57.40;;;;;;5085042;28;20059;-42
2021/05/22 03:28:46;;;;;;;2.30;1.70;;;24.50;57.30;;;;;;5090670;28;20091;-42
2021/05/22 03:31:12;;;;;;;1.83;1.60;;;24.50;57.40;;;;;;5099835;28;20020;-40
2021/05/22 03:33:38;;;;;;;1.85;1.75;;;24.40;57.00;;;;;;5103985;28;20032;-41
2021/05/22 03:36:05;;;;;;;2.03;1.80;;;24.40;57.00;;;;;;5105242;28;20024;-41
2021/05/22 03:38:31;;;;;;;1.50;1.40;;;24.40;56.90;;;;;;5105316;28;20032;-40
2021/05/22 03:40:57;;;;;;;1.60;1.50;;;24.40;56.70;;;;;;5105313;28;20087;-40
2021/05/22 03:43:24;;;;;;;1.65;1.55;;;24.40;56.90;;;;;;5105404;28;20039;-40
2021/05/22 03:45:50;;;;;;;1.73;1.63;;;24.40;56.70;;;;;;5105181;28;20035;-40
2021/05/22 03:48:16;;;;;;;1.60;1.50;;;24.40;56.50;;;;;;5105071;28;20030;-40
2021/05/22 03:50:42;;;;;;;1.48;1.38;;;24.30;56.50;;;;;;5105138;28;20713;-42
2021/05/22 03:53:09;;;;;;;1.60;1.50;;;24.30;56.20;;;;;;5105108;28;20145;-40
2021/05/22 03:55:35;;;;;;;1.67;1.55;;;24.30;56.40;;;;;;5104994;28;20024;-44
2021/05/22 03:58:01;;;;;;;1.63;1.52;;;24.30;56.30;;;;;;5104732;28;20046;-40
2021/05/22 04:00:28;;;;;;;2.28;1.50;;;24.30;56.40;;;;;;5104327;28;20024;-40
2021/05/22 04:02:54;;;;;;;1.70;1.50;;;24.30;56.40;;;;;;5092236;28;20056;-39
2021/05/22 04:05:20;;;;;;;1.67;1.58;;;24.20;56.40;;;;;;5084752;28;20032;-40
2021/05/22 04:07:46;;;;;;;1.98;1.80;;;24.20;56.40;;;;;;5084704;28;20115;-40
2021/05/22 04:10:12;;;;;;;1.90;1.80;;;24.20;56.40;;;;;;5084422;28;20095;-40
2021/05/22 04:12:38;;;;;;;1.70;1.60;;;24.20;56.30;;;;;;5084452;28;20029;-39
2021/05/22 04:15:05;;;;;;;2.60;1.70;;;24.20;56.40;;;;;;5084122;28;20024;-42
2021/05/22 04:17:31;;;;;;;1.67;1.58;;;24.10;56.40;;;;;;5084478;28;20052;-40
2021/05/22 04:19:58;;;;;;;1.75;1.60;;;24.10;56.40;;;;;;5084280;28;20751;-40
2021/05/22 04:22:24;;;;;;;1.88;1.60;;;24.10;56.40;;;;;;5085491;28;20036;-42
2021/05/22 04:24:50;;;;;;;1.83;1.60;;;24.10;56.40;;;;;;5104217;28;20020;-39
2021/05/22 04:27:16;;;;;;;1.70;1.60;;;24.10;56.40;;;;;;5104372;28;20035;-41
2021/05/22 04:29:42;;;;;;;3.35;1.83;;;24.10;56.40;;;;;;5104002;28;20038;-40
2021/05/22 04:32:09;;;;;;;1.70;1.60;;;24.00;56.40;;;;;;5091213;28;20028;-40
2021/05/22 04:34:35;;;;;;;1.73;1.63;;;24.00;56.40;;;;;;5104457;28;20020;-40
2021/05/22 04:37:01;;;;;;;2.13;1.92;;;24.00;56.40;;;;;;5104353;28;20031;-43
2021/05/22 04:39:28;;;;;;;1.95;1.75;;;24.00;56.50;;;;;;5098866;28;20024;-40
2021/05/22 04:41:54;;;;;;;2.00;1.90;;;24.00;56.50;;;;;;5082516;28;20047;-40
2021/05/22 04:44:20;;;;;;;2.10;1.90;;;24.00;56.50;;;;;;5083783;28;20024;-41
2021/05/22 04:46:46;;;;;;;1.85;1.63;;;23.90;56.60;;;;;;5083501;28;20032;-43
2021/05/22 04:49:13;;;;;;;1.98;1.73;;;23.90;56.50;;;;;;5083532;28;20032;-42
2021/05/22 04:51:39;;;;;;;1.73;1.63;;;23.90;56.50;;;;;;5083770;28;20033;-40
2021/05/22 04:54:07;;;;;;;1.90;1.80;;;23.90;56.60;;;;;;5083627;28;20024;-39
2021/05/22 04:56:33;;;;;;;1.70;1.60;;;23.90;56.60;;;;;;5083515;28;20025;-41
2021/05/22 04:58:59;;;;;;;1.90;1.80;;;23.90;56.60;;;;;;5082116;28;20032;-40
2021/05/22 05:01:25;;;;;;;2.00;1.80;;;23.90;56.60;;;;;;5090365;28;20024;-40
2021/05/22 05:03:52;;;;;;;1.50;1.40;;;23.90;56.60;;;;;;5103771;28;20093;-40
2021/05/22 05:06:18;;;;;;;1.70;1.60;;;23.80;56.70;;;;;;5103832;28;20084;-40
2021/05/22 05:08:44;;;;;;;1.77;1.67;;;23.80;56.70;;;;;;5076633;28;20488;-39
2021/05/22 05:11:11;;;;;;;1.90;1.70;;;23.80;56.70;;;;;;5081878;28;20104;-40
2021/05/22 05:13:37;;;;;;;1.88;1.70;;;23.80;56.70;;;;;;5082754;28;20372;-42
2021/05/22 05:16:03;;;;;;;2.35;2.00;;;23.80;56.80;;;;;;5088326;28;20040;-40
2021/05/22 05:18:30;;;;;;;1.70;1.60;;;23.70;56.70;;;;;;5103464;28;20039;-40
2021/05/22 05:20:56;;;;;;;1.95;1.80;;;23.70;56.70;;;;;;5103030;28;20057;-40
2021/05/22 05:23:22;;;;;;;1.85;1.75;;;23.70;56.80;;;;;;5103410;28;20040;-42
2021/05/22 05:25:52;;;;;;;2.00;1.80;;;23.70;56.80;;;;;;5103510;28;20052;-40
2021/05/22 05:28:21;;;;;;;1.70;1.60;;;23.70;56.80;;;;;;5103457;28;20028;-41
2021/05/22 05:30:47;;;;;;;2.55;1.83;;;23.70;56.80;;;;;;5094829;28;20028;-41
2021/05/22 05:33:13;;;;;;;2.00;1.80;;;23.60;56.80;;;;;;5098537;28;20027;-40
2021/05/22 05:35:39;;;;;;;1.88;1.67;;;23.70;56.90;;;;;;5103283;28;20016;-40
2021/05/22 05:38:06;;;;;;;1.98;1.88;;;23.60;56.80;;;;;;5099781;28;20024;-40
2021/05/22 05:40:32;;;;;;;2.33;1.90;;;23.60;56.90;;;;;;5091577;28;20020;-41
2021/05/22 05:42:58;;;;;;;1.90;1.77;;;23.60;56.90;;;;;;5081345;28;20032;-40
2021/05/22 05:45:25;;;;;;;1.70;1.60;;;23.60;56.90;;;;;;5082552;28;20035;-42
2021/05/22 05:47:56;;;;;;;1.60;1.50;;;23.60;56.90;;;;;;5082939;28;20090;-40
2021/05/22 05:50:22;;;;;;;1.70;1.60;;;23.50;56.90;;;;;;5082599;28;20056;-41
2021/05/22 05:52:48;;;;;;;1.58;1.48;;;23.50;57.00;;;;;;5082712;28;20032;-40
2021/05/22 05:55:16;;;;;;;2.00;1.90;;;23.50;57.00;;;;;;5082827;28;20048;-40
2021/05/22 05:57:42;;;;;;;2.00;1.80;;;23.50;57.00;;;;;;5082763;28;20089;-42
2021/05/22 06:00:09;;;;;;;2.15;2.00;;;23.50;57.10;;;;;;5092275;28;20035;-40
2021/05/22 06:02:35;;;;;;;1.90;1.80;;;23.50;57.70;;;;;;5092622;28;20036;-41
2021/05/22 06:05:01;;;;;;;2.22;1.92;;;23.50;57.10;;;;;;5082570;28;20497;-40
2021/05/22 06:07:27;;;;;;;2.35;2.00;;;23.40;57.10;;;;;;5081118;28;20032;-40
2021/05/22 06:09:54;;;;;;;2.53;2.20;;;23.40;57.70;;;;;;5082453;28;20027;-40
2021/05/22 06:12:20;;;;;;;2.00;1.80;;;23.40;57.20;;;;;;5098084;28;20070;-41
2021/05/22 06:14:51;;;;;;;2.03;1.90;;;23.40;57.20;;;;;;5102795;28;20095;-40
2021/05/22 06:17:18;;;;;;;1.95;1.80;;;23.40;57.20;;;;;;5102695;28;20020;-42
2021/05/22 06:19:44;;;;;;;2.22;2.00;;;23.30;57.20;;;;;;5102438;28;20039;-42
2021/05/22 06:22:10;;;;;;;1.98;1.88;;;23.30;57.20;;;;;;5102665;28;20124;-43
2021/05/22 06:24:36;;;;;;;1.98;1.88;;;23.30;57.30;;;;;;5105692;28;20020;-40
2021/05/22 06:27:02;;;;;;;2.00;1.75;;;23.30;57.30;;;;;;5105344;28;20028;-41
2021/05/22 06:29:29;;;;;;;1.92;1.83;;;23.30;57.30;;;;;;5106716;28;20035;-40
2021/05/22 06:31:55;;;;;;;1.70;1.60;;;23.30;57.30;;;;;;5106480;28;20032;-41
2021/05/22 06:34:21;;;;;;;1.88;1.77;;;23.30;57.30;;;;;;5106527;28;20103;-40
2021/05/22 06:36:47;;;;;;;2.25;2.05;;;23.20;57.40;;;;;;5106653;28;20086;-41
2021/05/22 06:39:13;;;;;;;2.30;2.10;;;23.20;57.30;;;;;;5106569;28;20024;-40
2021/05/22 06:41:40;;;;;;;1.85;1.75;;;23.20;57.30;;;;;;5089304;28;20037;-40
2021/05/22 06:44:07;;;;;;;2.10;1.70;;;23.20;57.30;;;;;;5086103;28;20024;-40
2021/05/22 06:49:05;;;;;;;2.38;1.90;;;23.20;57.40;;;;;;5086109;28;20021;-39
2021/05/22 06:51:33;;;;;;;2.33;2.00;;;23.10;57.40;;;;;;5085432;28;20048;-41
2021/05/22 06:53:59;;;;;;;2.10;1.90;;;23.10;57.40;;;;;;5086177;28;20047;-40
2021/05/22 06:56:25;;;;;;;2.10;1.90;;;23.10;57.40;;;;;;5085846;28;20032;-40
2021/05/22 06:58:51;;;;;;;2.10;1.90;;;23.10;57.50;;;;;;5085801;28;20029;-40
2021/05/22 07:01:17;;;;;;;2.75;1.73;;;23.10;57.50;;;;;;5105190;28;20378;-40
2021/05/22 07:03:44;;;;;;;1.98;1.88;;;23.10;57.50;;;;;;5104528;28;20036;-40
2021/05/22 07:06:12;;;;;;;2.70;2.05;;;23.10;57.50;;;;;;5085896;28;20059;-40
2021/05/22 07:08:39;;;;;;;2.10;1.85;;;23.00;57.60;;;;;;5085901;28;20024;-42
2021/05/22 07:11:05;;;;;;;;;;;23.00;57.60;;;;;;5093390;28;20505;-40
2021/05/22 07:13:31;;;;;;;2.13;1.92;;;23.00;57.60;;;;;;5105714;28;19984;-41
2021/05/22 07:15:57;;;;;;;2.63;2.03;;;23.00;57.60;;;;;;5105850;28;20502;-41
2021/05/22 07:18:23;;;;;;;2.30;2.00;;;23.00;57.70;;;;;;5105577;28;20024;-41
2021/05/22 07:20:49;;;;;;;2.10;2.00;;;23.00;57.70;;;;;;5105634;28;20031;-40
2021/05/22 07:23:16;;;;;;;2.15;1.98;;;22.90;57.70;;;;;;5105860;28;20078;-40
2021/05/22 07:25:42;;;;;;;2.30;2.10;;;22.90;57.70;;;;;;5105595;28;20047;-40
2021/05/22 07:28:12;;;;;;;2.28;2.08;;;22.90;57.70;;;;;;5105591;28;20047;-40
2021/05/22 07:30:41;;;;;;;1.95;1.85;;;22.90;57.80;;;;;;5105299;28;20039;-42
2021/05/22 07:33:08;;;;;;;1.90;1.80;;;22.90;57.80;;;;;;5090821;28;20034;-41
2021/05/22 07:35:34;;;;;;;2.30;2.10;;;22.80;57.70;;;;;;5084547;28;20131;-42
2021/05/22 07:38:00;;;;;;;2.28;2.03;;;22.80;57.80;;;;;;5083640;28;20119;-40
2021/05/22 07:40:26;;;;;;;2.15;1.95;;;22.80;57.80;;;;;;5094395;28;20408;-42
2021/05/22 07:42:52;;;;;;;2.00;1.90;;;22.80;57.80;;;;;;5104940;28;20032;-40
2021/05/22 07:45:19;;;;;;;2.20;2.10;;;22.80;57.80;;;;;;5102180;28;20024;-43
2021/05/22 07:47:46;;;;;;;2.53;2.30;;;22.80;57.90;;;;;;5105323;28;20093;-41
2021/05/22 07:50:12;;;;;;;2.47;2.28;;;22.70;57.90;;;;;;5105177;28;20066;-40
2021/05/22 07:52:40;;;;;;;2.17;1.98;;;22.80;57.90;;;;;;5104867;28;20059;-40
2021/05/22 07:55:10;;;;;;;2.13;2.03;;;22.70;57.90;;;;;;5105341;28;20032;-42
2021/05/22 07:57:36;;;;;;;2.33;2.13;;;22.70;58.00;;;;;;5105107;28;20086;-42
2021/05/22 08:00:07;;;;;;;4.13;2.50;;;22.70;57.90;;;;;;5103607;28;20035;-41
2021/05/22 08:02:33;;;;;;;2.08;1.88;;;22.70;58.00;;;;;;5094842;28;20033;-43
2021/05/22 08:04:59;;;;;;;2.60;2.40;;;22.70;58.00;;;;;;5084933;28;20020;-40
2021/05/22 08:07:25;;;;;;;2.50;2.30;;;22.60;58.00;;;;;;5084553;28;20028;-40
2021/05/22 08:09:51;;;;;;;2.40;2.20;;;22.60;58.00;;;;;;5084567;28;20032;-40
2021/05/22 08:12:17;;;;;;;2.65;2.45;;;22.60;58.10;;;;;;5101400;28;20059;-41
2021/05/22 08:14:44;;;;;;;2.10;2.00;;;22.60;58.10;;;;;;5084404;28;20043;-40
2021/05/22 08:17:10;;;;;;;2.58;2.38;;;22.60;58.20;;;;;;5084354;28;20020;-40
2021/05/22 08:19:36;;;;;;;2.20;2.00;;;22.60;58.20;;;;;;5084578;28;20035;-40
2021/05/22 08:22:02;;;;;;;2.47;2.22;;;22.60;58.20;;;;;;5084034;28;20064;-42
2021/05/22 08:24:28;;;;;;;2.53;2.33;;;22.60;58.20;;;;;;5084286;28;20032;-41
2021/05/22 08:26:54;;;;;;;2.15;1.95;;;22.50;58.20;;;;;;5084193;28;20032;-40
2021/05/22 08:29:21;;;;;;;3.00;2.42;;;22.50;58.30;;;;;;5087320;28;20028;-40
2021/05/22 08:31:47;;;;;;;2.30;2.10;;;22.50;58.20;;;;;;5100848;28;20032;-40
2021/05/22 08:34:13;;;;;;;2.30;2.10;;;22.50;58.30;;;;;;5084230;28;20261;-40
2021/05/22 08:36:40;;;;;;;2.42;2.22;;;22.50;58.30;;;;;;5084063;28;20055;-40
2021/05/22 08:39:06;;;;;;;2.60;2.40;;;22.40;58.30;;;;;;5090186;28;20044;-44
2021/05/22 08:41:33;;;;;;;2.65;2.45;;;22.40;58.30;;;;;;5104245;28;20028;-42
2021/05/22 08:44:02;;;;;;;2.78;2.58;;;22.40;58.40;;;;;;5102609;28;20115;-43
2021/05/22 08:46:29;;;;;;;3.75;2.20;;;22.40;58.30;;;;;;5103312;28;20028;-39
2021/05/22 08:48:55;;;;;;;2.70;2.50;;;22.40;58.40;;;;;;5102122;28;20036;-41
2021/05/22 08:51:22;;;;;;;2.58;2.38;;;22.40;58.40;;;;;;5104093;28;20536;-40
2021/05/22 08:53:48;;;;;;;2.30;2.10;;;22.40;58.40;;;;;;5103778;28;20024;-41
2021/05/22 08:56:14;;;;;;;2.33;2.13;;;22.40;58.50;;;;;;5104053;28;20016;-40
2021/05/22 08:58:41;;;;;;;2.63;2.40;;;22.30;58.40;;;;;;5103958;28;20039;-40
2021/05/22 09:01:07;;;;;;;2.40;2.20;;;22.30;58.50;;;;;;5101863;28;20123;-40
2021/05/22 09:03:33;;;;;;;2.75;2.55;;;22.30;58.50;;;;;;5102377;28;20036;-40
2021/05/22 09:06:00;;;;;;;2.95;2.30;;;22.30;58.50;;;;;;5103832;28;20024;-40
2021/05/22 09:08:26;;;;;;;2.80;2.60;;;22.30;58.60;;;;;;5103781;28;20032;-40
2021/05/22 09:10:53;;;;;;;2.45;2.25;;;22.30;58.60;;;;;;5102347;28;20028;-40
2021/05/22 09:13:23;;;;;;;2.50;2.30;;;22.20;58.60;;;;;;5103129;28;20021;-40
2021/05/22 09:15:54;;;;;;;2.80;2.53;;;22.20;58.60;;;;;;5103801;28;20107;-40
2021/05/22 09:18:21;;;;;;;2.63;2.42;;;22.20;58.60;;;;;;5103879;28;20028;-41
2021/05/22 09:20:54;;;;;;;2.58;2.38;;;22.20;58.60;;;;;;5103632;28;20034;-41
2021/05/22 09:23:25;;;;;;;3.00;2.75;;;22.20;58.70;;;;;;5103405;28;20028;-41
2021/05/22 09:25:52;;;;;;;2.60;2.40;;;22.20;58.70;;;;;;5103389;28;20035;-41
2021/05/22 09:28:20;;;;;;;2.50;2.30;;;22.20;58.70;;;;;;5103442;28;20028;-40
2021/05/22 09:30:49;;;;;;;2.47;2.22;;;22.10;58.70;;;;;;5103388;28;20028;-39
2021/05/22 09:33:16;;;;;;;2.60;2.40;;;22.10;58.80;;;;;;5087625;28;20036;-40
2021/05/22 09:35:53;;;;;;;2.72;2.53;;;22.10;58.80;;;;;;5083406;28;20028;-40
2021/05/22 09:38:19;;;;;;;2.80;2.60;;;22.10;58.80;;;;;;5081941;28;20036;-39
2021/05/22 09:40:45;;;;;;;2.50;2.30;;;22.10;58.90;;;;;;5096424;28;20016;-40
2021/05/22 09:43:13;;;;;;;2.50;2.30;;;22.10;58.90;;;;;;5102849;28;20032;-41
2021/05/22 09:45:40;;;;;;;2.60;2.40;;;22.10;58.90;;;;;;5103429;28;20023;-41
2021/05/22 09:48:17;;;;;;;2.80;2.60;;;22.00;58.90;;;;;;5103266;28;20053;-43
2021/05/22 09:50:48;;;;;;;3.00;2.70;;;22.00;58.90;;;;;;5103250;28;20109;-41
2021/05/22 09:53:31;;;;;;;2.63;2.42;;;22.00;59.00;;;;;;5099775;28;20020;-40
2021/05/22 09:56:11;;;;;;;2.60;2.40;;;22.00;58.90;;;;;;5103524;28;20078;-41
2021/05/22 09:59:04;;;;;;;2.88;2.60;;;22.00;59.00;;;;;;5101443;28;20104;-40
2021/05/22 10:01:40;;;;;;;2.75;2.53;;;22.00;59.10;;;;;;5082597;28;20041;-40
2021/05/22 10:04:20;;;;;;;2.60;2.40;;;21.90;59.00;;;;;;5103033;28;20032;-40
2021/05/22 10:06:46;;;;;;;2.65;2.45;;;21.90;59.10;;;;;;5103200;28;20051;-40
2021/05/22 10:09:17;;;;;;;2.72;2.47;;;21.90;59.10;;;;;;5103205;28;20169;-40
2021/05/22 10:12:02;;;;;;;3.55;2.60;;;21.90;59.20;;;;;;5103153;28;20055;-41
2021/05/22 10:14:42;;;;;;;2.40;2.20;;;21.90;59.20;;;;;;5102818;28;20024;-41
2021/05/22 10:17:09;;;;;;;2.97;2.67;;;21.90;59.20;;;;;;5102976;28;20051;-40
2021/05/22 10:19:36;;;;;;;;;;;21.90;59.20;;;;;;5103713;28;20445;-40
2021/05/22 10:22:03;;;;;;;2.60;2.40;;;21.80;59.20;;;;;;5102697;28;20369;-40
2021/05/22 10:24:29;;;;;;;2.80;2.60;;;21.80;59.20;;;;;;5101300;28;20020;-43
2021/05/22 10:26:56;;;;;;;3.05;2.85;;;21.80;59.20;;;;;;5102998;28;20096;-41
2021/05/22 10:29:22;;;;;;;3.08;2.88;;;21.80;59.30;;;;;;5103145;28;20611;-41
2021/05/22 10:31:49;;;;;;;2.73;2.53;;;21.80;59.30;;;;;;5099409;28;20068;-39
2021/05/22 10:34:19;;;;;;;2.57;2.37;;;21.70;59.30;;;;;;5081227;28;20029;-41
2021/05/22 10:36:48;;;;;;;3.20;2.90;;;21.70;59.40;;;;;;5082652;28;20477;-41
2021/05/22 10:39:39;;;;;;;2.70;2.50;;;21.70;59.30;;;;;;5082926;28;20094;-41
2021/05/22 10:42:21;;;;;;;3.20;3.00;;;21.70;59.40;;;;;;5102980;28;20066;-40
2021/05/22 10:44:47;;;;;;;3.42;2.60;;;21.70;59.40;;;;;;5086001;28;20021;-40
2021/05/22 10:47:16;;;;;;;2.75;2.55;;;21.70;59.50;;;;;;5082570;28;20485;-40
2021/05/22 10:49:55;;;;;;;2.60;2.40;;;21.70;59.40;;;;;;5081114;28;20032;-40
2021/05/22 10:52:26;;;;;;;2.80;2.60;;;21.70;59.50;;;;;;5083428;28;20052;-42
2021/05/22 10:55:07;;;;;;;2.70;2.50;;;21.60;59.60;;;;;;5085060;28;20051;-41
2021/05/22 10:57:46;;;;;;;2.78;2.58;;;21.60;59.40;;;;;;5102750;28;20036;-41
2021/05/22 11:00:16;;;;;;;2.58;2.38;;;21.60;59.50;;;;;;5092467;28;20088;-41
2021/05/22 11:02:44;;;;;;;2.60;2.40;;;21.60;59.50;;;;;;5082402;28;20056;-43
2021/05/22 11:05:27;;;;;;;2.70;2.50;;;21.60;59.60;;;;;;5082240;28;20080;-42
2021/05/22 11:08:22;;;;;;;3.13;2.85;;;21.60;59.60;;;;;;5082232;28;20040;-42
2021/05/22 11:10:49;;;;;;;3.17;2.75;;;21.50;59.60;;;;;;5053597;28;20040;-41
2021/05/22 11:13:21;;;;;;;2.60;2.40;;;21.50;59.60;;;;;;5063988;28;20036;-41
2021/05/22 11:15:54;;;;;;;2.85;2.65;;;21.50;59.60;;;;;;5062836;28;20033;-42
2021/05/22 11:18:27;;;;;;;3.00;2.70;;;21.50;59.70;;;;;;5063130;28;20025;-43
2021/05/22 11:21:14;;;;;;;2.95;2.65;;;21.50;59.70;;;;;;5062878;28;20083;-42
2021/05/22 11:24:01;;;;;;;2.63;2.42;;;21.50;59.70;;;;;;5062834;28;20036;-42
2021/05/22 11:26:49;;;;;;;2.83;2.63;;;21.50;59.70;;;;;;5046318;28;20036;-42
2021/05/22 11:29:15;;;;;;;2.80;2.60;;;21.40;59.70;;;;;;5062950;28;20037;-43
2021/05/22 11:31:42;;;;;;;3.00;2.80;;;21.40;59.70;;;;;;5062820;28;20060;-42
2021/05/22 11:34:23;;;;;;;2.90;2.60;;;21.40;59.70;;;;;;5045806;28;20040;-41
2021/05/22 11:37:10;;;;;;;3.30;3.00;;;21.40;59.80;;;;;;5063004;28;20614;-42
2021/05/22 11:39:46;;;;;;;3.03;2.83;;;21.40;59.80;;;;;;5062662;28;20029;-41
2021/05/22 11:42:31;;;;;;;3.38;2.70;;;21.40;59.80;;;;;;5062783;28;20048;-42
2021/05/22 11:45:01;;;;;;;2.90;2.70;;;21.40;59.80;;;;;;5062361;28;20048;-41
2021/05/22 11:47:35;;;;;;;2.90;2.63;;;21.40;59.80;;;;;;5082055;28;20062;-45
2021/05/22 11:50:02;;;;;;;3.25;2.97;;;21.40;59.90;;;;;;5103915;28;20510;-41
2021/05/22 11:52:29;;;;;;;3.05;2.60;;;21.30;59.80;;;;;;5104072;28;20040;-42
2021/05/22 11:54:56;;;;;;;3.20;2.90;;;21.30;59.90;;;;;;5105142;28;20579;-45
2021/05/22 11:57:22;;;;;;;3.92;2.78;;;21.30;59.90;;;;;;5105523;28;20052;-42
2021/05/22 11:59:48;;;;;;;3.33;3.10;;;21.30;59.90;;;;;;5102246;28;20084;-41
2021/05/22 12:02:33;;;;;;;2.83;2.63;;;21.30;60.00;;;;;;5092237;28;20040;-42
2021/05/22 12:04:59;;;;;;;2.83;2.63;;;21.30;60.00;;;;;;5103941;28;20116;-42
2021/05/22 12:07:26;;;;;;;2.80;2.60;;;21.30;60.00;;;;;;5105294;28;20031;-44
2021/05/22 12:09:52;;;;;;;2.75;2.55;;;21.30;60.00;;;;;;5105099;28;20028;-41
2021/05/22 12:12:28;;;;;;;3.17;2.88;;;21.30;60.00;;;;;;5101937;28;20040;-41
2021/05/22 12:14:54;;;;;;;2.75;2.55;;;21.30;60.10;;;;;;5084542;28;20028;-42
2021/05/22 12:17:20;;;;;;;3.20;2.90;;;21.20;60.00;;;;;;5084512;28;20029;-42
2021/05/22 12:19:50;;;;;;;3.30;3.00;;;21.20;60.00;;;;;;5084933;28;20091;-41
2021/05/22 12:22:18;;;;;;;2.80;2.60;;;21.20;60.00;;;;;;5082942;28;20036;-41
2021/05/22 12:24:46;;;;;;;;;;;21.20;60.00;;;;;;5105135;28;20028;-41
2021/05/22 12:27:15;;;;;;;;;;;21.20;60.00;;;;;;5105563;28;19912;-41
2021/05/22 12:29:46;;;;;;;2.80;2.60;;;21.20;60.00;;;;;;5105008;28;19928;-41
2021/05/22 12:32:13;;;;;;;3.17;2.88;;;21.20;60.10;;;;;;5096293;28;20079;-41
2021/05/22 12:34:39;;;;;;;3.00;2.70;;;21.20;60.10;;;;;;5084308;28;20028;-41
2021/05/22 12:37:11;;;;;;;4.07;2.90;;;21.20;60.20;;;;;;5084252;28;20035;-41
2021/05/22 12:39:40;;;;;;;3.15;2.85;;;21.20;60.10;;;;;;5086769;28;20024;-41
2021/05/22 12:42:23;;;;;;;3.20;2.60;;;21.20;60.10;;;;;;5101505;28;20100;-42
2021/05/22 12:44:51;;;;;;;3.00;2.70;;;21.20;60.10;;;;;;5084171;28;20108;-42
2021/05/22 12:47:18;;;;;;;2.88;2.67;;;21.20;60.00;;;;;;5083752;28;20111;-42
2021/05/22 12:50:06;;;;;;;2.80;2.60;;;21.20;60.20;;;;;;5084136;28;20106;-41
2021/05/22 12:52:52;;;;;;;2.88;2.67;;;21.20;60.00;;;;;;5086439;28;20213;-41
2021/05/22 12:55:23;;;;;;;2.75;2.55;;;21.20;60.10;;;;;;5102522;28;20044;-40
2021/05/22 12:57:49;;;;;;;2.80;2.60;;;21.20;60.00;;;;;;5104517;28;20024;-41